Time;durP1;ratioP1;P1;durP2;ratioP2;P2;SDS_P1;SDS_P2;PMS_P1;PMS_P2;Temp;Humidity;BMP_temperature;BMP_pressure;BME280_temperature;BME280_humidity;BME280_pressure;Samples;Min_cycle;Max_cycle;Signal;HPM_P1;HPM_P2
2022/12/05 00:00:22;;;;;;;30.27;15.70;;;;;;;;;;5023357;28;20042;-78
2022/12/05 00:02:48;;;;;;;27.75;14.88;;;;;;;;;;5033551;28;20041;-78
2022/12/05 00:05:14;;;;;;;26.85;14.77;;;;;;;;;;5033523;28;20047;-78
2022/12/05 00:07:40;;;;;;;23.40;14.13;;;;;;;;;;5033924;28;20077;-78
2022/12/05 00:10:06;;;;;;;24.75;14.35;;;;;;;;;;5029168;28;20046;-78
2022/12/05 00:12:32;;;;;;;24.90;13.82;;;;;;;;;;5033500;28;20087;-77
2022/12/05 00:14:58;;;;;;;24.85;13.80;;;;;;;;;;5028720;28;20099;-77
2022/12/05 00:17:25;;;;;;;25.35;14.23;;;;;;;;;;5021539;28;20456;-77
2022/12/05 00:19:51;;;;;;;24.67;14.68;;;;;;;;;;5033227;28;20099;-78
2022/12/05 00:22:17;;;;;;;24.88;15.38;;;;;;;;;;5032527;28;20049;-78
2022/12/05 00:24:43;;;;;;;28.45;14.45;;;;;;;;;;5023511;28;20124;-78
2022/12/05 00:27:09;;;;;;;28.13;15.57;;;;;;;;;;5033359;28;20121;-78
2022/12/05 00:29:35;;;;;;;29.40;14.93;;;;;;;;;;5033504;28;20041;-78
2022/12/05 00:32:01;;;;;;;27.50;15.18;;;;;;;;;;5031649;28;20103;-77
2022/12/05 00:34:27;;;;;;;27.23;15.45;;;;;;;;;;5033141;28;20128;-77
2022/12/05 00:36:53;;;;;;;26.15;15.38;;;;;;;;;;5027381;28;20424;-78
2022/12/05 00:39:19;;;;;;;27.70;14.85;;;;;;;;;;5022100;28;20045;-77
2022/12/05 00:41:45;;;;;;;28.73;16.95;;;;;;;;;;5032640;28;20646;-77
2022/12/05 00:44:12;;;;;;;29.02;15.63;;;;;;;;;;5017386;28;20077;-77
2022/12/05 00:46:39;;;;;;;27.70;15.30;;;;;;;;;;5017757;28;20132;-77
2022/12/05 00:49:06;;;;;;;26.85;15.55;;;;;;;;;;5036806;28;20052;-77
2022/12/05 00:51:39;;;;;;;26.90;16.35;;;;;;;;;;5036550;28;20496;-77
2022/12/05 00:54:10;;;;;;;30.48;16.17;;;;;;;;;;5031005;28;20429;-77
2022/12/05 00:56:36;;;;;;;29.80;16.70;;;;;;;;;;5033417;28;20041;-77
2022/12/05 00:59:03;;;;;;;30.48;16.63;;;;;;;;;;5036987;28;20209;-77
2022/12/05 01:01:32;;;;;;;29.27;17.02;;;;;;;;;;5036845;28;20053;-77
2022/12/05 01:03:59;;;;;;;28.70;15.90;;;;;;;;;;5036450;28;20045;-77
2022/12/05 01:06:25;;;;;;;29.77;17.15;;;;;;;;;;5036621;28;20041;-77
2022/12/05 01:08:53;;;;;;;32.35;17.13;;;;;;;;;;5023133;28;20432;-77
2022/12/05 01:11:19;;;;;;;28.27;16.25;;;;;;;;;;5018456;28;20041;-77
2022/12/05 01:13:45;;;;;;;31.70;16.95;;;;;;;;;;5036888;28;20045;-77
2022/12/05 01:16:16;;;;;;;28.77;16.33;;;;;;;;;;5031963;28;20046;-77
2022/12/05 01:18:42;;;;;;;31.92;17.40;;;;;;;;;;5016026;28;20064;-77
2022/12/05 01:21:08;;;;;;;28.80;16.50;;;;;;;;;;5036198;28;20123;-77
2022/12/05 01:23:37;;;;;;;30.23;16.85;;;;;;;;;;5036300;28;20077;-77
2022/12/05 01:26:08;;;;;;;30.90;16.40;;;;;;;;;;5051468;28;20053;-77
2022/12/05 01:28:34;;;;;;;31.13;15.00;;;;;;;;;;5036797;28;20164;-77
2022/12/05 01:31:05;;;;;;;27.08;13.80;;;;;;;;;;5036055;28;20048;-77
2022/12/05 01:33:31;;;;;;;30.00;14.35;;;;;;;;;;5036184;28;20045;-77
2022/12/05 01:35:57;;;;;;;25.27;13.57;;;;;;;;;;5035815;28;20065;-77
2022/12/05 01:38:26;;;;;;;28.02;14.10;;;;;;;;;;5035759;28;20488;-77
2022/12/05 01:41:00;;;;;;;28.60;14.18;;;;;;;;;;5035443;28;20053;-77
2022/12/05 01:43:26;;;;;;;27.23;12.85;;;;;;;;;;5016276;28;20041;-77
2022/12/05 01:45:52;;;;;;;22.08;12.73;;;;;;;;;;5035036;28;20041;-77
2022/12/05 01:48:21;;;;;;;24.45;12.13;;;;;;;;;;5035873;28;20124;-77
2022/12/05 01:50:48;;;;;;;21.73;11.52;;;;;;;;;;5035877;28;20037;-77
2022/12/05 01:53:15;;;;;;;19.35;10.48;;;;;;;;;;5035578;28;20049;-77
2022/12/05 01:55:41;;;;;;;21.00;10.85;;;;;;;;;;5035449;28;20041;-77
2022/12/05 01:58:09;;;;;;;17.08;10.60;;;;;;;;;;5035319;28;20042;-77
2022/12/05 02:00:35;;;;;;;16.77;9.73;;;;;;;;;;5035621;28;20048;-77
2022/12/05 02:03:08;;;;;;;20.20;10.70;;;;;;;;;;5035408;28;20626;-77
2022/12/05 02:05:35;;;;;;;18.48;9.63;;;;;;;;;;5031497;28;20484;-77
2022/12/05 02:08:02;;;;;;;17.60;10.15;;;;;;;;;;5022899;28;20053;-77
2022/12/05 02:10:31;;;;;;;18.15;9.35;;;;;;;;;;5033526;28;20077;-77
2022/12/05 02:12:59;;;;;;;14.38;9.13;;;;;;;;;;5035712;28;20368;-77
2022/12/05 02:15:35;;;;;;;18.08;8.80;;;;;;;;;;5034382;28;20495;-77
2022/12/05 02:18:01;;;;;;;17.45;8.35;;;;;;;;;;5018379;28;20107;-77
2022/12/05 02:20:27;;;;;;;16.40;8.38;;;;;;;;;;5039825;28;20107;-77
2022/12/05 02:22:56;;;;;;;18.42;8.85;;;;;;;;;;5037599;28;20053;-78
2022/12/05 02:25:30;;;;;;;17.02;8.50;;;;;;;;;;5034680;28;20077;-78
2022/12/05 02:28:02;;;;;;;16.05;8.93;;;;;;;;;;5035144;28;20507;-78
2022/12/05 02:30:34;;;;;;;15.35;7.93;;;;;;;;;;5035819;28;20045;-78
2022/12/05 02:33:03;;;;;;;19.02;9.02;;;;;;;;;;5035051;28;20049;-78
2022/12/05 02:35:55;;;;;;;14.80;7.72;;;;;;;;;;5034876;28;20049;-78
2022/12/05 02:38:27;;;;;;;15.52;8.75;;;;;;;;;;5033485;28;20111;-77
2022/12/05 02:40:53;;;;;;;14.55;7.95;;;;;;;;;;5035185;28;20049;-77
2022/12/05 02:43:24;;;;;;;14.25;7.70;;;;;;;;;;5021237;28;20107;-77
2022/12/05 02:45:52;;;;;;;13.50;7.95;;;;;;;;;;5033738;28;20069;-77
2022/12/05 02:48:20;;;;;;;15.23;8.27;;;;;;;;;;5034523;28;20491;-77
2022/12/05 02:50:46;;;;;;;17.45;8.07;;;;;;;;;;5034593;28;20369;-77
2022/12/05 02:53:14;;;;;;;14.63;8.15;;;;;;;;;;5035127;28;20119;-77
2022/12/05 02:55:41;;;;;;;12.52;7.90;;;;;;;;;;5033778;28;20045;-77
2022/12/05 02:58:11;;;;;;;14.38;7.78;;;;;;;;;;5034689;28;20052;-77
2022/12/05 03:00:39;;;;;;;15.32;7.68;;;;;;;;;;5034771;28;20044;-77
2022/12/05 03:03:10;;;;;;;14.43;7.47;;;;;;;;;;5034637;28;20045;-77
2022/12/05 03:05:48;;;;;;;17.70;7.82;;;;;;;;;;5027039;28;20052;-77
2022/12/05 03:08:18;;;;;;;11.27;6.82;;;;;;;;;;5033860;28;20057;-77
2022/12/05 03:10:44;;;;;;;15.38;7.28;;;;;;;;;;5032795;28;20038;-77
2022/12/05 03:13:16;;;;;;;15.38;8.05;;;;;;;;;;5033559;28;20049;-77
2022/12/05 03:15:45;;;;;;;14.35;7.68;;;;;;;;;;5034183;28;20038;-77
2022/12/05 03:18:38;;;;;;;14.18;6.95;;;;;;;;;;5034367;28;20065;-77
2022/12/05 03:21:19;;;;;;;13.63;6.82;;;;;;;;;;5020495;28;20416;-77
2022/12/05 03:23:48;;;;;;;15.15;6.50;;;;;;;;;;5030969;28;20033;-77
2022/12/05 03:26:16;;;;;;;18.75;6.82;;;;;;;;;;5034093;28;20057;-77
2022/12/05 03:29:02;;;;;;;14.07;6.90;;;;;;;;;;5034101;28;20057;-77
2022/12/05 03:31:37;;;;;;;15.90;6.97;;;;;;;;;;5034269;28;20052;-77
2022/12/05 03:34:07;;;;;;;10.20;5.90;;;;;;;;;;5034107;28;20072;-77
2022/12/05 03:36:37;;;;;;;11.98;6.55;;;;;;;;;;5033925;28;20475;-77
2022/12/05 03:39:23;;;;;;;13.82;7.32;;;;;;;;;;5032841;28;20063;-77
2022/12/05 03:41:55;;;;;;;13.43;6.63;;;;;;;;;;5031802;28;20136;-77
2022/12/05 03:44:30;;;;;;;14.43;6.90;;;;;;;;;;5032988;28;20049;-77
2022/12/05 03:47:09;;;;;;;13.02;7.35;;;;;;;;;;5034198;28;20124;-77
2022/12/05 03:49:44;;;;;;;13.50;6.85;;;;;;;;;;5033286;28;20140;-77
2022/12/05 03:52:10;;;;;;;14.60;6.82;;;;;;;;;;5014208;28;20041;-77
2022/12/05 03:54:49;;;;;;;13.98;7.05;;;;;;;;;;5023673;28;20411;-77
2022/12/05 03:57:18;;;;;;;12.98;6.57;;;;;;;;;;5032202;28;20041;-77
2022/12/05 03:59:46;;;;;;;14.48;7.00;;;;;;;;;;5033844;28;20049;-77
2022/12/05 04:02:15;;;;;;;14.00;7.45;;;;;;;;;;5032486;28;20041;-77
2022/12/05 04:05:07;;;;;;;14.68;7.60;;;;;;;;;;5033176;28;20107;-77
2022/12/05 04:07:35;;;;;;;13.45;7.55;;;;;;;;;;5018768;28;20380;-77
2022/12/05 04:10:22;;;;;;;13.63;7.68;;;;;;;;;;5033671;28;20041;-77
2022/12/05 04:12:48;;;;;;;15.77;7.78;;;;;;;;;;5033065;28;20430;-77
2022/12/05 04:15:17;;;;;;;16.80;8.18;;;;;;;;;;5033271;28;20041;-77
2022/12/05 04:17:50;;;;;;;15.98;8.10;;;;;;;;;;5032965;28;20038;-77
2022/12/05 04:23:23;;;;;;;16.50;8.43;;;;;;;;;;5031202;28;20476;-77
2022/12/05 04:25:55;;;;;;;16.58;8.48;;;;;;;;;;5015272;28;20045;-77
2022/12/05 04:28:21;;;;;;;13.90;7.85;;;;;;;;;;5032141;28;20129;-77
2022/12/05 04:31:05;;;;;;;13.95;8.40;;;;;;;;;;5033209;28;20033;-77
2022/12/05 04:33:53;;;;;;;14.82;8.95;;;;;;;;;;5033178;28;20569;-77
2022/12/05 04:36:19;;;;;;;14.45;8.05;;;;;;;;;;5032328;28;20045;-77
2022/12/05 04:38:50;;;;;;;12.82;8.13;;;;;;;;;;5032862;28;20392;-77
2022/12/05 04:41:20;;;;;;;15.32;8.23;;;;;;;;;;5033404;28;20049;-77
2022/12/05 04:43:47;;;;;;;18.70;8.00;;;;;;;;;;5026139;28;20111;-77
2022/12/05 04:46:14;;;;;;;17.33;8.65;;;;;;;;;;5033214;28;20051;-78
2022/12/05 04:48:42;;;;;;;17.75;8.25;;;;;;;;;;5029488;28;20508;-77
2022/12/05 04:51:12;;;;;;;15.45;7.63;;;;;;;;;;5032988;28;20041;-77
2022/12/05 04:53:39;;;;;;;16.17;8.52;;;;;;;;;;5019869;28;20477;-77
2022/12/05 04:56:05;;;;;;;17.30;8.43;;;;;;;;;;5033426;28;20037;-77
2022/12/05 04:58:32;;;;;;;16.23;7.93;;;;;;;;;;5032638;28;20037;-77
2022/12/05 05:01:13;;;;;;;19.13;8.55;;;;;;;;;;5033249;28;20128;-77
2022/12/05 05:03:40;;;;;;;18.52;7.93;;;;;;;;;;5019903;28;20065;-77
2022/12/05 05:06:07;;;;;;;15.38;7.97;;;;;;;;;;5013223;28;20053;-77
2022/12/05 05:08:33;;;;;;;18.90;7.90;;;;;;;;;;5013537;28;20381;-77
2022/12/05 05:11:16;;;;;;;16.25;8.20;;;;;;;;;;5032209;28;20080;-77
2022/12/05 05:13:42;;;;;;;13.43;7.05;;;;;;;;;;5032949;28;20050;-77
2022/12/05 05:16:12;;;;;;;15.52;8.57;;;;;;;;;;5032807;28;20480;-77
2022/12/05 05:18:38;;;;;;;17.95;8.15;;;;;;;;;;5032803;28;20057;-77
2022/12/05 05:21:04;;;;;;;18.48;8.25;;;;;;;;;;5033000;28;20128;-77
2022/12/05 05:23:30;;;;;;;15.85;8.43;;;;;;;;;;5032765;28;20411;-77
2022/12/05 05:25:56;;;;;;;17.77;8.18;;;;;;;;;;5033848;28;20045;-77
2022/12/05 05:28:23;;;;;;;20.55;8.15;;;;;;;;;;5036282;28;20049;-77
2022/12/05 05:30:49;;;;;;;12.75;6.88;;;;;;;;;;5035788;28;20052;-77
2022/12/05 05:33:15;;;;;;;12.77;7.38;;;;;;;;;;5036817;28;20057;-77
2022/12/05 05:35:41;;;;;;;16.45;7.20;;;;;;;;;;5037239;28;20049;-77
2022/12/05 05:38:07;;;;;;;19.02;7.82;;;;;;;;;;5034054;28;20048;-77
2022/12/05 05:40:35;;;;;;;14.35;7.85;;;;;;;;;;5036310;28;20045;-77
2022/12/05 05:43:02;;;;;;;16.25;8.13;;;;;;;;;;5036497;28;20049;-77
2022/12/05 05:45:28;;;;;;;17.20;8.40;;;;;;;;;;5035730;28;20049;-78
2022/12/05 05:47:54;;;;;;;16.77;7.55;;;;;;;;;;5035783;28;20048;-77
2022/12/05 05:50:20;;;;;;;20.25;8.00;;;;;;;;;;5036505;28;20084;-77
2022/12/05 05:52:46;;;;;;;15.93;7.63;;;;;;;;;;5035893;28;20128;-77
2022/12/05 05:55:12;;;;;;;17.60;7.47;;;;;;;;;;5035773;28;20152;-77
2022/12/05 05:57:38;;;;;;;13.90;7.32;;;;;;;;;;5035487;28;20487;-77
2022/12/05 06:00:05;;;;;;;14.57;7.65;;;;;;;;;;5034609;28;20053;-77
2022/12/05 06:02:32;;;;;;;16.85;7.80;;;;;;;;;;5027707;28;20116;-77
2022/12/05 06:04:58;;;;;;;21.23;7.78;;;;;;;;;;5035453;28;20361;-77
2022/12/05 06:07:25;;;;;;;14.25;7.25;;;;;;;;;;5035334;28;20107;-77
2022/12/05 06:09:51;;;;;;;16.70;7.65;;;;;;;;;;5020856;28;20049;-77
2022/12/05 06:12:17;;;;;;;14.77;8.32;;;;;;;;;;5014847;28;20080;-78
2022/12/05 06:14:49;;;;;;;15.63;7.68;;;;;;;;;;5030068;28;20045;-78
2022/12/05 06:17:16;;;;;;;16.13;7.43;;;;;;;;;;5035958;28;20088;-78
2022/12/05 06:19:42;;;;;;;15.60;7.53;;;;;;;;;;5029187;28;20053;-78
2022/12/05 06:22:08;;;;;;;18.67;7.82;;;;;;;;;;5034810;28;20484;-77
2022/12/05 06:24:34;;;;;;;16.45;7.72;;;;;;;;;;5035495;28;20124;-77
2022/12/05 06:27:00;;;;;;;18.65;7.45;;;;;;;;;;5034016;28;20124;-77
2022/12/05 06:29:26;;;;;;;18.52;8.02;;;;;;;;;;5022800;28;20046;-80
2022/12/05 06:31:52;;;;;;;12.80;7.05;;;;;;;;;;5017964;28;20447;-78
2022/12/05 06:34:18;;;;;;;13.52;6.82;;;;;;;;;;5026939;28;20125;-78
2022/12/05 06:36:44;;;;;;;15.27;6.60;;;;;;;;;;5026729;28;20385;-78
2022/12/05 06:39:10;;;;;;;23.08;7.40;;;;;;;;;;5022479;28;20392;-77
2022/12/05 06:41:39;;;;;;;12.57;6.00;;;;;;;;;;5035409;28;20084;-77
2022/12/05 06:44:06;;;;;;;15.00;7.00;;;;;;;;;;5031984;28;20033;-77
2022/12/05 06:46:32;;;;;;;17.55;6.53;;;;;;;;;;5034695;28;20467;-77
2022/12/05 06:48:58;;;;;;;15.00;6.00;;;;;;;;;;5034786;28;20042;-77
2022/12/05 06:51:24;;;;;;;14.23;6.63;;;;;;;;;;5035137;28;20073;-77
2022/12/05 06:53:51;;;;;;;17.73;7.00;;;;;;;;;;5029942;28;20046;-77
2022/12/05 06:56:18;;;;;;;14.40;6.63;;;;;;;;;;5015531;28;20143;-77
2022/12/05 06:58:45;;;;;;;15.70;6.50;;;;;;;;;;5023171;28;20120;-77
2022/12/05 07:04:01;;;;;;;14.18;6.00;;;;;;;;;;5034570;28;20081;-77
2022/12/05 07:06:27;;;;;;;10.73;6.10;;;;;;;;;;5034706;28;20065;-77
2022/12/05 07:08:53;;;;;;;14.55;6.03;;;;;;;;;;5026579;28;20046;-77
2022/12/05 07:11:19;;;;;;;17.45;6.63;;;;;;;;;;5034201;28;20510;-78
2022/12/05 07:13:45;;;;;;;13.32;6.05;;;;;;;;;;5035477;28;20042;-79
2022/12/05 07:16:11;;;;;;;17.73;6.63;;;;;;;;;;5018674;28;20096;-78
2022/12/05 07:18:37;;;;;;;12.05;5.88;;;;;;;;;;5014789;28;20056;-78
2022/12/05 07:21:05;;;;;;;17.25;5.80;;;;;;;;;;5017432;28;20046;-78
2022/12/05 07:23:31;;;;;;;14.38;5.85;;;;;;;;;;5026423;28;20077;-78
2022/12/05 07:25:57;;;;;;;14.05;5.68;;;;;;;;;;5023573;28;20050;-79
2022/12/05 07:28:24;;;;;;;11.77;6.03;;;;;;;;;;5023203;28;20473;-78
2022/12/05 07:30:59;;;;;;;11.80;6.07;;;;;;;;;;5034546;28;20084;-78
2022/12/05 07:33:25;;;;;;;12.48;6.03;;;;;;;;;;5033483;28;20045;-78
2022/12/05 07:35:51;;;;;;;12.18;5.88;;;;;;;;;;5035310;28;20045;-78
2022/12/05 07:38:17;;;;;;;12.15;5.82;;;;;;;;;;5034997;28;20049;-78
2022/12/05 07:40:43;;;;;;;15.15;6.38;;;;;;;;;;5028885;28;20046;-78
2022/12/05 07:43:11;;;;;;;14.38;6.40;;;;;;;;;;5015195;28;20057;-78
2022/12/05 07:45:37;;;;;;;15.93;6.57;;;;;;;;;;5019257;28;20050;-78
2022/12/05 07:48:04;;;;;;;13.20;5.88;;;;;;;;;;5015326;28;20048;-78
2022/12/05 07:50:30;;;;;;;15.10;7.57;;;;;;;;;;5026043;28;20042;-78
2022/12/05 07:52:56;;;;;;;19.65;6.38;;;;;;;;;;5034327;28;20124;-78
2022/12/05 07:55:22;;;;;;;12.98;6.43;;;;;;;;;;5032535;28;20049;-78
2022/12/05 07:57:48;;;;;;;16.08;6.57;;;;;;;;;;5035764;28;20045;-79
2022/12/05 08:00:14;;;;;;;15.95;6.30;;;;;;;;;;5035293;28;20103;-78
2022/12/05 08:02:40;;;;;;;12.38;6.43;;;;;;;;;;5036745;28;20081;-77
2022/12/05 08:05:07;;;;;;;18.08;6.57;;;;;;;;;;5034368;28;20435;-78
2022/12/05 08:07:33;;;;;;;16.67;6.38;;;;;;;;;;5034344;28;20045;-78
2022/12/05 08:09:59;;;;;;;16.05;6.82;;;;;;;;;;5033958;28;20045;-78
2022/12/05 08:12:25;;;;;;;12.75;6.68;;;;;;;;;;5033635;28;20073;-78
2022/12/05 08:14:51;;;;;;;13.38;6.65;;;;;;;;;;5029817;28;20056;-78
2022/12/05 08:17:17;;;;;;;15.98;6.63;;;;;;;;;;5021731;28;20099;-79
2022/12/05 08:19:43;;;;;;;12.88;6.13;;;;;;;;;;5033733;28;20056;-78
2022/12/05 08:22:10;;;;;;;14.63;6.22;;;;;;;;;;5034249;28;20054;-78
2022/12/05 08:24:36;;;;;;;11.60;5.90;;;;;;;;;;5034120;28;20057;-78
2022/12/05 08:27:03;;;;;;;15.23;6.22;;;;;;;;;;5034794;28;20085;-78
2022/12/05 08:29:29;;;;;;;16.75;6.43;;;;;;;;;;5032926;28;20484;-78
2022/12/05 08:31:55;;;;;;;13.50;6.13;;;;;;;;;;5033287;28;20050;-78
2022/12/05 08:34:21;;;;;;;16.17;7.10;;;;;;;;;;5035680;28;20053;-79
2022/12/05 08:36:48;;;;;;;14.77;6.38;;;;;;;;;;5033544;28;20038;-79
2022/12/05 08:39:15;;;;;;;13.80;6.07;;;;;;;;;;5019187;28;20108;-78
2022/12/05 08:41:41;;;;;;;21.77;6.53;;;;;;;;;;5017578;28;20362;-78
2022/12/05 08:44:09;;;;;;;16.55;6.25;;;;;;;;;;5035590;28;20106;-79
2022/12/05 08:46:36;;;;;;;13.98;7.05;;;;;;;;;;5029033;28;20065;-79
2022/12/05 08:49:03;;;;;;;13.02;5.93;;;;;;;;;;5032293;28;20069;-78
2022/12/05 08:51:29;;;;;;;15.00;6.50;;;;;;;;;;5030927;28;20034;-78
2022/12/05 08:53:55;;;;;;;14.32;6.43;;;;;;;;;;5026868;28;20125;-78
2022/12/05 08:56:21;;;;;;;17.98;6.95;;;;;;;;;;5034509;28;20064;-79
2022/12/05 08:58:47;;;;;;;14.00;6.75;;;;;;;;;;5030265;28;20057;-79
2022/12/05 09:01:15;;;;;;;17.15;7.15;;;;;;;;;;5033463;28;20041;-79
2022/12/05 09:03:41;;;;;;;12.35;6.30;;;;;;;;;;5018329;28;20034;-79
2022/12/05 09:06:09;;;;;;;14.48;6.93;;;;;;;;;;5027930;28;20045;-79
2022/12/05 09:08:36;;;;;;;14.52;6.38;;;;;;;;;;5034623;28;20034;-79
2022/12/05 09:11:12;;;;;;;14.02;6.82;;;;;;;;;;5028154;28;20466;-79
2022/12/05 09:13:41;;;;;;;17.20;7.72;;;;;;;;;;5019495;28;20084;-79
2022/12/05 09:16:07;;;;;;;15.30;7.18;;;;;;;;;;5026634;28;20041;-79
2022/12/05 09:18:34;;;;;;;14.82;7.45;;;;;;;;;;5032516;28;20057;-79
2022/12/05 09:21:06;;;;;;;14.90;6.85;;;;;;;;;;5036838;28;20514;-78
2022/12/05 09:23:32;;;;;;;14.60;6.78;;;;;;;;;;5040181;28;20463;-80
2022/12/05 09:26:01;;;;;;;14.13;7.30;;;;;;;;;;5021716;28;20472;-79
2022/12/05 09:28:28;;;;;;;13.98;7.13;;;;;;;;;;5023412;28;20093;-79
2022/12/05 09:30:57;;;;;;;14.95;7.57;;;;;;;;;;5023600;28;20041;-80
2022/12/05 09:33:26;;;;;;;14.48;7.18;;;;;;;;;;5037888;28;20045;-79
2022/12/05 09:35:52;;;;;;;12.90;7.43;;;;;;;;;;5041662;28;20104;-79
2022/12/05 09:38:18;;;;;;;14.02;6.75;;;;;;;;;;5031196;28;20050;-79
2022/12/05 09:40:51;;;;;;;15.32;7.53;;;;;;;;;;5035535;28;20124;-79
2022/12/05 09:43:41;;;;;;;17.13;8.02;;;;;;;;;;5040760;28;20108;-79
2022/12/05 09:46:17;;;;;;;17.83;7.95;;;;;;;;;;5035891;28;20085;-79
2022/12/05 09:48:43;;;;;;;14.85;7.63;;;;;;;;;;5031247;28;20099;-79
2022/12/05 09:51:10;;;;;;;12.30;7.10;;;;;;;;;;5036436;28;20053;-79
2022/12/05 09:53:38;;;;;;;12.38;7.13;;;;;;;;;;5002135;28;20058;-79
2022/12/05 09:56:10;;;;;;;14.38;7.68;;;;;;;;;;5026659;28;20049;-79
2022/12/05 09:58:39;;;;;;;14.00;7.32;;;;;;;;;;5029088;28;20056;-79
2022/12/05 10:01:18;;;;;;;13.15;6.97;;;;;;;;;;5032509;28;20504;-79
2022/12/05 10:03:55;;;;;;;17.70;7.20;;;;;;;;;;5035085;28;20574;-79
2022/12/05 10:06:24;;;;;;;14.95;7.00;;;;;;;;;;5037398;28;20084;-79
2022/12/05 10:08:50;;;;;;;12.02;6.85;;;;;;;;;;5031275;28;20064;-79
2022/12/05 10:11:43;;;;;;;13.82;7.28;;;;;;;;;;5022910;28;20137;-79
2022/12/05 10:14:26;;;;;;;16.27;6.95;;;;;;;;;;5017597;28;20378;-79
2022/12/05 10:16:54;;;;;;;16.90;7.20;;;;;;;;;;5016648;28;20041;-79
2022/12/05 10:19:35;;;;;;;13.88;7.15;;;;;;;;;;5015408;28;20061;-79
2022/12/05 10:22:04;;;;;;;16.67;7.60;;;;;;;;;;5025612;28;20463;-79
2022/12/05 10:24:30;;;;;;;15.98;7.47;;;;;;;;;;5033981;28;20458;-78
2022/12/05 10:26:59;;;;;;;14.95;7.68;;;;;;;;;;5036838;28;20480;-79
2022/12/05 10:29:30;;;;;;;18.40;7.40;;;;;;;;;;5028440;28;20037;-80
2022/12/05 10:32:12;;;;;;;14.95;7.25;;;;;;;;;;5036488;28;20476;-82
2022/12/05 10:34:40;;;;;;;12.85;6.78;;;;;;;;;;5024030;28;20349;-80
2022/12/05 10:37:18;;;;;;;15.43;7.05;;;;;;;;;;5033012;28;20048;-81
2022/12/05 10:39:45;;;;;;;14.43;6.63;;;;;;;;;;5039255;28;20081;-79
2022/12/05 10:42:16;;;;;;;16.13;7.45;;;;;;;;;;5041206;28;20045;-79
2022/12/05 10:44:42;;;;;;;15.07;6.85;;;;;;;;;;5041616;28;20038;-79
2022/12/05 10:47:09;;;;;;;15.10;7.03;;;;;;;;;;5040116;28;20391;-79
2022/12/05 10:49:36;;;;;;;16.30;6.72;;;;;;;;;;5041084;28;20041;-79
2022/12/05 10:52:03;;;;;;;14.32;6.80;;;;;;;;;;5029495;28;20046;-80
2022/12/05 10:54:30;;;;;;;12.20;6.78;;;;;;;;;;5034196;28;20037;-79
2022/12/05 10:56:56;;;;;;;14.40;6.90;;;;;;;;;;5020900;28;20038;-79
2022/12/05 10:59:23;;;;;;;16.17;6.68;;;;;;;;;;5017876;28;20053;-79
2022/12/05 11:01:57;;;;;;;12.13;6.68;;;;;;;;;;5029449;28;20056;-80
2022/12/05 11:04:31;;;;;;;13.43;6.40;;;;;;;;;;5036349;28;20129;-79
2022/12/05 11:06:59;;;;;;;16.77;6.85;;;;;;;;;;5040113;28;20041;-79
2022/12/05 11:09:29;;;;;;;14.18;6.57;;;;;;;;;;5032103;28;20045;-79
2022/12/05 11:12:14;;;;;;;13.50;6.28;;;;;;;;;;5029383;28;20078;-79
2022/12/05 11:14:40;;;;;;;13.82;6.68;;;;;;;;;;5034720;28;20048;-80
2022/12/05 11:17:09;;;;;;;14.50;6.30;;;;;;;;;;5039316;28;20087;-79
2022/12/05 11:19:37;;;;;;;14.65;5.43;;;;;;;;;;5039232;28;20054;-80
2022/12/05 11:22:06;;;;;;;20.08;7.10;;;;;;;;;;5034574;28;20050;-80
2022/12/05 11:24:37;;;;;;;14.25;6.20;;;;;;;;;;5034211;28;20069;-79
2022/12/05 11:27:19;;;;;;;15.75;6.20;;;;;;;;;;5022807;28;20048;-82
2022/12/05 11:30:02;;;;;;;14.32;6.38;;;;;;;;;;5038317;28;20052;-80
2022/12/05 11:32:30;;;;;;;17.00;6.57;;;;;;;;;;5037850;28;20033;-81
2022/12/05 11:35:04;;;;;;;13.75;6.68;;;;;;;;;;5028477;28;20050;-80
2022/12/05 11:37:44;;;;;;;17.00;6.57;;;;;;;;;;5021184;28;20374;-80
2022/12/05 11:40:31;;;;;;;13.52;6.45;;;;;;;;;;5019695;28;20041;-80
2022/12/05 11:43:09;;;;;;;13.90;5.85;;;;;;;;;;5020637;28;20045;-80
2022/12/05 11:45:50;;;;;;;15.60;6.07;;;;;;;;;;5023203;28;20113;-81
2022/12/05 11:48:39;;;;;;;15.23;6.38;;;;;;;;;;5012579;28;20042;-79
2022/12/05 11:51:20;;;;;;;13.77;6.18;;;;;;;;;;5018746;28;20053;-79
2022/12/05 11:54:15;;;;;;;15.63;5.95;;;;;;;;;;5028718;28;20516;-79
2022/12/05 11:56:47;;;;;;;15.35;5.93;;;;;;;;;;5063423;28;20057;-78
2022/12/05 11:59:19;;;;;;;12.07;6.47;;;;;;;;;;5045613;28;20048;-78
2022/12/05 12:01:51;;;;;;;14.90;5.97;;;;;;;;;;5062494;28;20080;-78
2022/12/05 12:04:20;;;;;;;17.13;5.85;;;;;;;;;;5079112;28;20040;-79
2022/12/05 12:06:46;;;;;;;12.32;6.30;;;;;;;;;;5048925;28;20045;-79
2022/12/05 12:09:22;;;;;;;14.05;6.43;;;;;;;;;;5039590;28;20069;-78
2022/12/05 12:12:00;;;;;;;15.77;6.28;;;;;;;;;;5038850;28;20099;-78
2022/12/05 12:14:35;;;;;;;14.02;6.15;;;;;;;;;;5062558;28;20064;-78
2022/12/05 12:17:19;;;;;;;13.68;6.28;;;;;;;;;;5078450;28;20140;-78
2022/12/05 12:19:51;;;;;;;16.45;6.25;;;;;;;;;;5079082;28;20106;-78
2022/12/05 12:22:17;;;;;;;16.30;6.18;;;;;;;;;;5079380;28;20041;-78
2022/12/05 12:24:43;;;;;;;17.02;6.30;;;;;;;;;;5062458;28;20218;-78
2022/12/05 12:27:13;;;;;;;14.77;5.88;;;;;;;;;;5062019;28;20059;-78
2022/12/05 12:29:58;;;;;;;12.02;5.60;;;;;;;;;;5041908;28;20040;-77
2022/12/05 12:32:43;;;;;;;11.10;6.22;;;;;;;;;;5041922;28;20142;-79
2022/12/05 12:35:29;;;;;;;15.32;6.30;;;;;;;;;;5025933;28;20050;-78
2022/12/05 12:37:58;;;;;;;16.17;6.20;;;;;;;;;;5025482;28;20041;-78
2022/12/05 12:40:35;;;;;;;15.20;5.95;;;;;;;;;;5033905;28;20041;-78
2022/12/05 12:43:04;;;;;;;14.13;6.25;;;;;;;;;;5035694;28;20049;-78
2022/12/05 12:45:35;;;;;;;13.93;6.72;;;;;;;;;;5036393;28;20172;-78
2022/12/05 12:48:07;;;;;;;13.68;5.93;;;;;;;;;;5037208;28;20049;-78
2022/12/05 12:50:34;;;;;;;14.05;6.07;;;;;;;;;;5037298;28;20052;-78
2022/12/05 12:53:19;;;;;;;12.13;6.03;;;;;;;;;;5024792;28;20128;-78
2022/12/05 12:55:51;;;;;;;14.68;6.22;;;;;;;;;;5017565;28;20042;-78
2022/12/05 12:58:36;;;;;;;14.45;5.65;;;;;;;;;;5024060;28;20076;-78
2022/12/05 13:01:08;;;;;;;16.88;6.38;;;;;;;;;;5034343;28;20057;-78
2022/12/05 13:03:41;;;;;;;11.45;5.35;;;;;;;;;;5033782;28;20054;-78
2022/12/05 13:06:20;;;;;;;14.40;5.82;;;;;;;;;;5034701;28;20046;-78
2022/12/05 13:08:46;;;;;;;15.77;5.50;;;;;;;;;;5016547;28;20061;-78
2022/12/05 13:11:13;;;;;;;16.98;5.90;;;;;;;;;;5032807;28;20069;-80
2022/12/05 13:13:43;;;;;;;16.08;6.32;;;;;;;;;;5039286;28;20384;-77
2022/12/05 13:16:12;;;;;;;11.60;5.18;;;;;;;;;;5031208;28;20038;-78
2022/12/05 13:18:38;;;;;;;9.65;5.13;;;;;;;;;;5017905;28;20058;-78
2022/12/05 13:21:08;;;;;;;13.13;5.43;;;;;;;;;;5036441;28;20057;-78
2022/12/05 13:23:40;;;;;;;12.98;5.38;;;;;;;;;;5034307;28;20048;-78
2022/12/05 13:26:11;;;;;;;17.05;5.70;;;;;;;;;;5028186;28;20049;-78
2022/12/05 13:28:57;;;;;;;12.10;5.18;;;;;;;;;;5021607;28;20064;-78
2022/12/05 13:31:38;;;;;;;13.98;5.70;;;;;;;;;;5034052;28;20041;-77
2022/12/05 13:34:05;;;;;;;14.25;4.95;;;;;;;;;;5036086;28;20124;-77
2022/12/05 13:42:25;;;;;;;12.90;5.03;;;;;;;;;;5037818;28;20057;-77
2022/12/05 13:44:56;;;;;;;15.90;4.88;;;;;;;;;;5036443;28;20052;-78
2022/12/05 13:47:25;;;;;;;10.98;4.65;;;;;;;;;;5015113;28;20042;-78
2022/12/05 13:49:54;;;;;;;11.00;4.80;;;;;;;;;;5016028;28;20136;-78
2022/12/05 13:52:25;;;;;;;12.23;4.93;;;;;;;;;;5013070;28;20046;-77
2022/12/05 13:54:56;;;;;;;14.38;4.55;;;;;;;;;;5014847;28;20049;-77
2022/12/05 13:57:37;;;;;;;12.45;4.85;;;;;;;;;;5014719;28;20153;-77
2022/12/05 14:00:06;;;;;;;14.13;4.85;;;;;;;;;;5018830;28;20668;-77
2022/12/05 14:02:38;;;;;;;12.55;4.90;;;;;;;;;;5034366;28;20041;-77
2022/12/05 14:05:26;;;;;;;13.05;4.80;;;;;;;;;;5033091;28;20491;-77
2022/12/05 14:07:56;;;;;;;14.30;5.15;;;;;;;;;;5018622;28;20037;-77
2022/12/05 14:10:42;;;;;;;15.13;4.70;;;;;;;;;;5014913;28;20054;-78
2022/12/05 14:13:14;;;;;;;18.10;4.70;;;;;;;;;;5034038;28;20056;-78
2022/12/05 14:15:44;;;;;;;11.40;4.35;;;;;;;;;;5028325;28;20046;-78
2022/12/05 14:18:25;;;;;;;10.02;4.75;;;;;;;;;;5015635;28;20066;-78
2022/12/05 14:21:01;;;;;;;9.65;4.45;;;;;;;;;;5014447;28;20447;-78
2022/12/05 14:23:36;;;;;;;10.50;4.82;;;;;;;;;;5018173;28;20551;-78
2022/12/05 14:26:02;;;;;;;14.73;5.00;;;;;;;;;;5015777;28;20512;-78
2022/12/05 14:29:00;;;;;;;11.95;4.97;;;;;;;;;;5030467;28;20049;-78
2022/12/05 14:31:53;;;;;;;11.23;4.55;;;;;;;;;;5032897;28;20064;-78
2022/12/05 14:34:35;;;;;;;10.07;4.20;;;;;;;;;;5020317;28;20057;-78
2022/12/05 14:37:16;;;;;;;11.88;4.93;;;;;;;;;;5033488;28;20589;-78
2022/12/05 14:39:47;;;;;;;12.40;4.57;;;;;;;;;;5033367;28;20080;-78
2022/12/05 14:42:26;;;;;;;11.00;4.45;;;;;;;;;;5017475;28;20192;-78
2022/12/05 14:44:54;;;;;;;14.50;4.80;;;;;;;;;;5009919;28;20048;-78
2022/12/05 14:47:22;;;;;;;11.27;4.95;;;;;;;;;;5032813;28;20050;-78
2022/12/05 14:49:52;;;;;;;13.50;5.10;;;;;;;;;;5033047;28;20483;-78
2022/12/05 14:52:22;;;;;;;12.70;5.03;;;;;;;;;;5032511;28;20095;-78
2022/12/05 14:54:53;;;;;;;12.52;5.57;;;;;;;;;;5026387;28;20124;-78
2022/12/05 14:57:19;;;;;;;12.70;5.25;;;;;;;;;;5032897;28;20100;-78